Time;durP1;ratioP1;P1;durP2;ratioP2;P2;SDS_P1;SDS_P2;PMS_P1;PMS_P2;Temp;Humidity;BMP_temperature;BMP_pressure;BME280_temperature;BME280_humidity;BME280_pressure;Samples;Min_cycle;Max_cycle;Signal;HPM_P1;HPM_P2
2022/07/01 00:00:48;;;;;;;6.68;5.20;;;16.90;70.40;;;;;;5043171;28;20346;-61
2022/07/01 00:03:16;;;;;;;6.68;5.03;;;17.00;70.30;;;;;;5044244;28;20515;-61
2022/07/01 00:05:44;;;;;;;5.93;4.85;;;17.00;70.20;;;;;;5044542;28;20045;-56
2022/07/01 00:08:11;;;;;;;7.03;5.25;;;17.00;70.10;;;;;;5045821;28;20401;-60
2022/07/01 00:10:38;;;;;;;9.77;5.50;;;17.10;70.10;;;;;;5043085;28;20048;-61
2022/07/01 00:13:07;;;;;;;6.50;5.00;;;17.10;69.90;;;;;;5043437;28;20056;-60
2022/07/01 00:15:35;;;;;;;7.32;5.47;;;17.10;69.50;;;;;;5044162;28;20508;-62
2022/07/01 00:18:04;;;;;;;5.95;4.75;;;17.10;69.30;;;;;;5043985;28;20929;-61
2022/07/01 00:20:31;;;;;;;5.50;4.70;;;17.20;69.30;;;;;;5042595;28;20052;-61
2022/07/01 00:22:59;;;;;;;6.63;5.28;;;17.20;69.00;;;;;;5044585;28;20057;-61
2022/07/01 00:25:26;;;;;;;11.48;5.32;;;17.30;69.00;;;;;;5043278;28;20057;-56
2022/07/01 00:27:54;;;;;;;8.68;4.13;;;17.20;68.90;;;;;;5041439;28;20060;-60
2022/07/01 00:30:21;;;;;;;8.05;5.50;;;17.30;68.80;;;;;;5042740;28;20451;-61
2022/07/01 00:32:52;;;;;;;7.38;5.45;;;17.30;68.60;;;;;;5042623;28;20060;-60
2022/07/01 00:35:20;;;;;;;6.72;4.35;;;17.40;68.20;;;;;;5043128;28;20057;-60
2022/07/01 00:37:48;;;;;;;7.53;4.85;;;17.40;68.00;;;;;;5042962;28;20053;-60
2022/07/01 00:40:15;;;;;;;6.70;4.65;;;17.40;68.00;;;;;;5043947;28;20057;-60
2022/07/01 00:42:43;;;;;;;6.18;4.63;;;17.50;68.00;;;;;;5043536;28;20060;-60
2022/07/01 00:45:12;;;;;;;7.15;5.28;;;17.50;67.90;;;;;;5041821;28;20057;-58
2022/07/01 00:47:41;;;;;;;5.00;4.40;;;17.50;67.80;;;;;;5043225;28;20048;-60
2022/07/01 00:50:13;;;;;;;6.97;4.97;;;17.60;67.70;;;;;;5043821;28;20061;-60
2022/07/01 00:52:41;;;;;;;5.03;4.18;;;17.60;67.50;;;;;;5042967;28;20060;-60
2022/07/01 00:55:11;;;;;;;6.50;4.78;;;17.60;67.40;;;;;;5043832;28;20056;-58
2022/07/01 00:57:39;;;;;;;5.25;3.63;;;17.60;67.20;;;;;;5043087;28;20056;-58
2022/07/01 01:00:16;;;;;;;5.20;4.28;;;17.70;67.10;;;;;;5043253;28;20057;-60
2022/07/01 01:02:44;;;;;;;6.78;4.78;;;17.70;67.10;;;;;;5041986;28;20492;-60
2022/07/01 01:05:13;;;;;;;5.82;5.10;;;17.80;66.80;;;;;;5044210;28;20057;-58
2022/07/01 01:07:42;;;;;;;5.28;4.32;;;17.80;66.50;;;;;;5043576;28;20057;-60
2022/07/01 01:10:11;;;;;;;5.68;4.57;;;17.80;66.40;;;;;;5042969;28;20052;-58
2022/07/01 01:12:38;;;;;;;6.90;4.88;;;17.80;67.20;;;;;;5041155;28;20048;-60
2022/07/01 01:15:07;;;;;;;7.68;5.07;;;17.80;66.40;;;;;;5043418;28;20496;-60
2022/07/01 01:17:35;;;;;;;8.68;5.30;;;17.80;66.20;;;;;;5042671;28;20515;-59
2022/07/01 01:20:02;;;;;;;6.78;5.30;;;17.80;66.30;;;;;;5043066;28;20564;-58
2022/07/01 01:22:31;;;;;;;5.97;4.30;;;17.90;66.40;;;;;;5040598;28;20048;-60
2022/07/01 01:24:59;;;;;;;11.43;4.78;;;17.80;66.20;;;;;;5043433;28;20064;-58
2022/07/01 01:27:26;;;;;;;5.63;3.88;;;17.90;66.30;;;;;;5043362;28;20429;-60
2022/07/01 01:29:54;;;;;;;3.40;3.08;;;17.90;66.30;;;;;;5042764;28;20057;-59
2022/07/01 01:32:21;;;;;;;5.03;3.53;;;17.90;66.30;;;;;;5042307;28;20053;-58
2022/07/01 01:34:49;;;;;;;6.65;4.53;;;18.00;66.30;;;;;;5043469;28;20064;-59
2022/07/01 01:37:17;;;;;;;5.63;4.25;;;18.00;66.20;;;;;;5042831;28;20057;-57
2022/07/01 01:39:46;;;;;;;5.35;3.80;;;18.00;66.10;;;;;;5041665;28;20056;-59
2022/07/01 01:42:13;;;;;;;4.25;3.45;;;18.00;66.00;;;;;;5040992;28;20063;-58
2022/07/01 01:44:41;;;;;;;4.93;3.50;;;18.00;65.70;;;;;;5042518;28;20071;-58
2022/07/01 01:47:08;;;;;;;5.15;4.13;;;18.00;65.50;;;;;;5042004;28;20416;-58
2022/07/01 01:49:36;;;;;;;5.00;3.50;;;18.10;65.50;;;;;;5042172;28;20049;-60
2022/07/01 01:52:04;;;;;;;4.55;3.60;;;18.10;65.40;;;;;;5040219;28;20049;-60
2022/07/01 01:54:31;;;;;;;4.47;3.70;;;18.10;66.10;;;;;;5043079;28;20060;-59
2022/07/01 01:57:01;;;;;;;7.13;3.85;;;18.10;65.20;;;;;;5043246;28;20059;-58
2022/07/01 01:59:28;;;;;;;6.95;3.78;;;18.10;65.10;;;;;;5041829;28;20045;-60
2022/07/01 02:01:56;;;;;;;3.92;3.50;;;18.10;65.00;;;;;;5040708;28;20048;-58
2022/07/01 02:04:24;;;;;;;4.25;3.55;;;18.20;64.90;;;;;;5042159;28;20061;-60
2022/07/01 02:06:51;;;;;;;5.28;4.00;;;18.20;65.00;;;;;;5041868;28;20057;-58
2022/07/01 02:09:19;;;;;;;6.20;4.18;;;18.20;65.00;;;;;;5040583;28;20052;-60
2022/07/01 02:11:46;;;;;;;5.28;3.53;;;18.20;65.10;;;;;;5042287;28;20060;-60
2022/07/01 02:14:15;;;;;;;7.47;4.68;;;18.20;65.00;;;;;;5041464;28;20067;-60
2022/07/01 02:16:43;;;;;;;5.65;4.03;;;18.20;65.10;;;;;;5041278;28;20068;-57
2022/07/01 02:19:10;;;;;;;3.92;3.53;;;18.20;65.00;;;;;;5041302;28;20508;-59
2022/07/01 02:21:37;;;;;;;5.32;3.30;;;18.20;65.00;;;;;;5041430;28;20060;-59
2022/07/01 02:24:05;;;;;;;4.45;3.83;;;18.30;65.10;;;;;;5042291;28;20060;-60
2022/07/01 02:26:33;;;;;;;4.63;3.25;;;18.30;64.90;;;;;;5042444;28;20056;-59
2022/07/01 02:29:00;;;;;;;3.83;2.85;;;18.30;64.70;;;;;;5041065;28;20421;-59
2022/07/01 02:31:29;;;;;;;3.60;2.30;;;18.30;65.10;;;;;;5039802;28;20065;-57
2022/07/01 02:33:56;;;;;;;4.47;2.90;;;18.30;64.30;;;;;;5039857;28;20049;-57
2022/07/01 02:36:24;;;;;;;3.75;2.67;;;18.30;64.00;;;;;;5040662;28;20064;-59
2022/07/01 02:38:51;;;;;;;3.17;2.72;;;18.30;64.00;;;;;;5042674;28;20052;-58
2022/07/01 02:41:19;;;;;;;2.55;2.35;;;18.30;63.90;;;;;;5040159;28;20061;-58
2022/07/01 02:43:46;;;;;;;3.10;2.50;;;18.30;64.00;;;;;;5041265;28;20056;-60
2022/07/01 02:46:14;;;;;;;5.25;2.85;;;18.30;64.00;;;;;;5041006;28;20412;-58
2022/07/01 02:48:44;;;;;;;3.08;2.58;;;18.30;64.00;;;;;;5041627;28;20061;-59
2022/07/01 02:51:11;;;;;;;8.15;2.75;;;18.30;64.00;;;;;;5040762;28;20519;-59
2022/07/01 02:53:39;;;;;;;5.90;2.88;;;18.30;63.80;;;;;;5039367;28;20048;-58
2022/07/01 02:56:06;;;;;;;5.13;1.90;;;18.30;63.60;;;;;;5042818;28;20068;-58
2022/07/01 02:58:34;;;;;;;3.75;1.67;;;18.30;63.50;;;;;;5040875;28;20416;-59
2022/07/01 03:01:02;;;;;;;4.68;1.92;;;18.30;63.20;;;;;;5040717;28;20056;-59
2022/07/01 03:03:29;;;;;;;2.70;1.55;;;18.30;63.00;;;;;;5041011;28;20504;-57
2022/07/01 03:05:58;;;;;;;1.60;1.50;;;18.30;63.10;;;;;;5042173;28;20053;-59
2022/07/01 03:08:25;;;;;;;2.20;1.40;;;18.20;62.90;;;;;;5041040;28;20053;-58
2022/07/01 03:10:53;;;;;;;2.83;1.38;;;18.30;62.80;;;;;;5041268;28;20075;-58
2022/07/01 03:13:20;;;;;;;1.58;1.40;;;18.20;62.80;;;;;;5041011;28;20507;-57
2022/07/01 03:15:48;;;;;;;2.78;1.45;;;18.20;62.80;;;;;;5040842;28;20052;-57
2022/07/01 03:18:15;;;;;;;1.38;1.27;;;18.20;62.80;;;;;;5039057;28;20053;-56
2022/07/01 03:20:43;;;;;;;1.10;1.00;;;18.20;62.70;;;;;;5041143;28;20052;-57
2022/07/01 03:23:12;;;;;;;1.70;1.20;;;18.20;62.70;;;;;;5040958;28;20052;-59
2022/07/01 03:25:39;;;;;;;1.92;1.17;;;18.20;62.90;;;;;;5040241;28;20049;-59
2022/07/01 03:28:07;;;;;;;1.38;1.27;;;18.20;62.90;;;;;;5042166;28;20053;-58
2022/07/01 03:30:34;;;;;;;5.38;1.77;;;18.20;63.00;;;;;;5044700;28;21013;-57
2022/07/01 03:33:02;;;;;;;3.47;1.83;;;18.20;63.00;;;;;;5043860;28;20045;-57
2022/07/01 03:35:40;;;;;;;4.97;2.78;;;18.20;63.00;;;;;;5046132;28;20049;-57
2022/07/01 03:38:08;;;;;;;4.07;1.67;;;18.20;63.10;;;;;;5046831;28;20056;-59
2022/07/01 03:40:37;;;;;;;6.25;2.50;;;18.10;62.80;;;;;;5043519;28;20053;-59
2022/07/01 03:43:05;;;;;;;1.90;1.70;;;18.10;62.60;;;;;;5044056;28;20055;-58
2022/07/01 03:45:33;;;;;;;3.55;1.60;;;18.20;62.60;;;;;;5045000;28;20912;-57
2022/07/01 03:48:00;;;;;;;3.75;1.63;;;18.10;62.70;;;;;;5046098;28;20359;-59
2022/07/01 03:50:27;;;;;;;1.90;1.70;;;18.10;62.90;;;;;;5046241;28;20053;-59
2022/07/01 03:55:42;;;;;;;4.47;1.60;;;18.10;63.00;;;;;;5053097;28;20056;-59
2022/07/01 03:58:10;;;;;;;1.70;1.48;;;18.10;63.10;;;;;;5046006;28;20066;-54
2022/07/01 04:00:39;;;;;;;2.60;1.63;;;18.10;63.10;;;;;;5041029;28;20049;-59
2022/07/01 04:03:08;;;;;;;2.88;1.70;;;18.10;63.10;;;;;;5044544;28;20052;-57
2022/07/01 04:05:36;;;;;;;1.33;1.23;;;18.10;63.20;;;;;;5045007;28;20060;-59
2022/07/01 04:08:06;;;;;;;2.28;1.70;;;18.10;63.30;;;;;;5045848;28;20060;-58
2022/07/01 04:10:34;;;;;;;1.52;1.42;;;18.10;63.40;;;;;;5043670;28;20060;-59
2022/07/01 04:13:04;;;;;;;15.52;8.20;;;18.10;63.30;;;;;;5044306;28;20056;-58
2022/07/01 04:15:32;;;;;;;4.50;2.80;;;18.10;63.20;;;;;;5044348;28;20063;-55
2022/07/01 04:18:00;;;;;;;5.40;3.83;;;18.10;63.20;;;;;;5041176;28;20508;-59
2022/07/01 04:20:27;;;;;;;6.97;3.03;;;18.10;63.30;;;;;;5042961;28;20045;-59
2022/07/01 04:22:55;;;;;;;2.60;1.50;;;18.10;63.20;;;;;;5044822;28;20404;-57
2022/07/01 04:25:22;;;;;;;1.95;1.50;;;18.10;62.90;;;;;;5044479;28;20044;-59
2022/07/01 04:27:50;;;;;;;3.20;1.60;;;18.10;62.80;;;;;;5043763;28;20436;-56
2022/07/01 04:30:19;;;;;;;3.38;1.50;;;18.10;62.80;;;;;;5045578;28;20055;-56
2022/07/01 04:32:46;;;;;;;6.25;1.17;;;18.10;63.00;;;;;;5043575;28;20481;-59
2022/07/01 04:35:14;;;;;;;2.08;1.20;;;18.10;62.90;;;;;;5046067;28;20053;-59
2022/07/01 04:37:42;;;;;;;1.58;0.90;;;18.10;62.60;;;;;;5043207;28;20060;-54
2022/07/01 04:40:09;;;;;;;1.58;1.10;;;18.10;62.50;;;;;;5045186;28;20064;-56
2022/07/01 04:42:36;;;;;;;2.03;1.30;;;18.10;62.30;;;;;;5039926;28;20053;-57
2022/07/01 04:45:04;;;;;;;1.38;1.25;;;18.10;62.10;;;;;;5042562;28;20056;-56
2022/07/01 04:47:33;;;;;;;1.17;1.00;;;18.10;62.00;;;;;;5043720;28;20055;-58
2022/07/01 04:50:02;;;;;;;1.20;1.10;;;18.10;62.10;;;;;;5044347;28;20053;-56
2022/07/01 04:52:29;;;;;;;3.75;1.30;;;18.10;62.00;;;;;;5042236;28;20049;-58
2022/07/01 04:54:57;;;;;;;1.77;1.00;;;18.10;61.90;;;;;;5042989;28;20057;-57
2022/07/01 04:57:24;;;;;;;1.40;1.20;;;18.10;61.70;;;;;;5044878;28;20057;-55
2022/07/01 04:59:51;;;;;;;1.20;1.10;;;18.10;61.90;;;;;;5041655;28;21712;-58
2022/07/01 05:02:19;;;;;;;2.58;1.25;;;18.10;62.10;;;;;;5041483;28;20060;-54
2022/07/01 05:04:48;;;;;;;1.75;1.15;;;18.10;62.10;;;;;;5044536;28;20401;-56
2022/07/01 05:07:28;;;;;;;5.60;1.38;;;18.10;62.10;;;;;;5041301;28;20063;-58
2022/07/01 05:09:56;;;;;;;1.77;1.30;;;18.10;61.90;;;;;;5040360;28;20064;-58
2022/07/01 05:12:24;;;;;;;2.05;1.23;;;18.10;61.80;;;;;;5040060;28;20048;-57
2022/07/01 05:14:51;;;;;;;1.83;1.00;;;18.10;61.80;;;;;;5042426;28;20049;-58
2022/07/01 05:17:19;;;;;;;1.23;1.13;;;18.10;61.90;;;;;;5042534;28;20060;-57
2022/07/01 05:22:33;;;;;;;1.95;1.10;;;18.10;61.50;;;;;;5046451;28;20063;-56
2022/07/01 05:25:01;;;;;;;1.40;0.80;;;18.10;61.10;;;;;;5043233;28;20492;-56
2022/07/01 05:27:29;;;;;;;1.00;0.75;;;18.10;61.10;;;;;;5044180;28;20072;-59
2022/07/01 05:29:56;;;;;;;3.28;1.20;;;18.10;61.40;;;;;;5041977;28;20056;-56
2022/07/01 05:32:23;;;;;;;2.33;1.25;;;18.10;61.60;;;;;;5040005;28;20053;-58
2022/07/01 05:34:52;;;;;;;2.05;1.17;;;18.10;61.80;;;;;;5042433;28;20507;-57
2022/07/01 05:37:21;;;;;;;1.40;0.98;;;18.20;62.00;;;;;;5042846;28;20428;-56
2022/07/01 05:39:49;;;;;;;3.92;1.00;;;18.20;61.80;;;;;;5042796;28;20512;-56
2022/07/01 05:42:16;;;;;;;1.77;1.13;;;18.20;61.50;;;;;;5042364;28;20059;-56
2022/07/01 05:44:44;;;;;;;2.17;1.10;;;18.20;61.40;;;;;;5041903;28;20045;-58
2022/07/01 05:47:11;;;;;;;3.72;1.20;;;18.20;61.30;;;;;;5042434;28;20060;-59
2022/07/01 05:49:39;;;;;;;1.42;1.08;;;18.30;61.20;;;;;;5043138;28;20052;-54
2022/07/01 05:52:08;;;;;;;1.17;1.00;;;18.30;61.30;;;;;;5040257;28;20512;-55
2022/07/01 05:54:36;;;;;;;4.07;1.20;;;18.30;61.30;;;;;;5042676;28;20049;-56
2022/07/01 05:57:04;;;;;;;3.30;1.13;;;18.30;61.40;;;;;;5042794;28;20052;-55
2022/07/01 05:59:31;;;;;;;0.98;0.75;;;18.30;60.80;;;;;;5043511;28;21253;-59
2022/07/01 06:01:59;;;;;;;2.97;1.10;;;18.40;60.50;;;;;;5037620;28;20053;-53
2022/07/01 06:04:26;;;;;;;2.70;1.00;;;18.40;60.30;;;;;;5042094;28;20064;-55
2022/07/01 06:06:53;;;;;;;2.17;1.15;;;18.40;60.00;;;;;;5043439;28;20060;-55
2022/07/01 06:09:22;;;;;;;1.60;1.40;;;18.50;60.00;;;;;;5043993;28;20061;-51
2022/07/01 06:11:50;;;;;;;2.13;1.02;;;18.50;59.80;;;;;;5040246;28;20056;-55
2022/07/01 06:14:17;;;;;;;4.00;1.10;;;18.50;59.90;;;;;;5042031;28;20049;-54
2022/07/01 06:16:45;;;;;;;2.42;1.00;;;18.50;60.00;;;;;;5040484;28;20485;-56
2022/07/01 06:19:12;;;;;;;3.15;1.08;;;18.50;60.00;;;;;;5041300;28;20060;-57
2022/07/01 06:21:40;;;;;;;1.45;0.80;;;18.60;59.90;;;;;;5042428;28;20451;-57
2022/07/01 06:24:07;;;;;;;2.65;1.15;;;18.60;59.80;;;;;;5042681;28;20048;-54
2022/07/01 06:26:36;;;;;;;3.13;1.00;;;18.70;59.50;;;;;;5042100;28;20053;-53
2022/07/01 06:29:03;;;;;;;4.03;1.00;;;18.70;59.20;;;;;;5041803;28;20049;-55
2022/07/01 06:31:33;;;;;;;1.88;1.25;;;18.80;59.20;;;;;;5041939;28;20057;-58
2022/07/01 06:34:00;;;;;;;3.20;0.90;;;18.80;59.30;;;;;;5043730;28;20048;-55
2022/07/01 06:36:27;;;;;;;4.63;1.08;;;18.90;59.10;;;;;;5042254;28;20049;-56
2022/07/01 06:38:55;;;;;;;2.90;1.00;;;18.90;58.80;;;;;;5042920;28;20064;-55
2022/07/01 06:41:28;;;;;;;2.25;0.90;;;18.90;58.70;;;;;;5040033;28;20496;-55
2022/07/01 06:43:58;;;;;;;2.13;0.90;;;19.00;58.60;;;;;;5040787;28;20057;-54
2022/07/01 06:46:25;;;;;;;3.10;1.08;;;19.00;58.70;;;;;;5041358;28;20055;-56
2022/07/01 06:48:53;;;;;;;2.10;1.23;;;19.00;58.60;;;;;;5042288;28;20061;-55
2022/07/01 06:51:20;;;;;;;3.28;1.05;;;19.00;58.10;;;;;;5040857;28;20056;-55
2022/07/01 06:53:49;;;;;;;1.50;0.98;;;19.10;58.20;;;;;;5043428;28;20482;-50
2022/07/01 06:56:17;;;;;;;5.45;1.10;;;19.10;58.50;;;;;;5041947;28;20068;-56
2022/07/01 06:58:45;;;;;;;1.98;1.10;;;19.10;58.60;;;;;;5042209;28;20416;-57
2022/07/01 07:01:14;;;;;;;1.95;0.80;;;19.20;58.30;;;;;;5037629;28;20063;-58
2022/07/01 07:03:41;;;;;;;1.95;1.10;;;19.20;57.50;;;;;;5043549;28;20053;-55
2022/07/01 07:06:09;;;;;;;2.05;1.02;;;19.20;57.50;;;;;;5046423;28;20068;-56
2022/07/01 07:08:36;;;;;;;1.08;0.75;;;19.20;57.50;;;;;;5045398;28;20500;-55
2022/07/01 07:11:04;;;;;;;3.60;1.08;;;19.20;57.50;;;;;;5041715;28;20068;-56
2022/07/01 07:13:31;;;;;;;2.05;1.10;;;19.20;57.40;;;;;;5044967;28;20059;-56
2022/07/01 07:15:59;;;;;;;2.33;1.23;;;19.30;57.50;;;;;;5042942;28;20076;-57
2022/07/01 07:18:28;;;;;;;2.97;1.10;;;19.30;57.50;;;;;;5042552;28;20057;-58
2022/07/01 07:20:55;;;;;;;3.58;1.00;;;19.30;57.90;;;;;;5043724;28;20056;-56
2022/07/01 07:23:23;;;;;;;1.35;1.00;;;19.40;57.80;;;;;;5043030;28;20049;-57
2022/07/01 07:25:50;;;;;;;3.47;1.00;;;19.40;57.50;;;;;;5043989;28;20049;-55
2022/07/01 07:28:18;;;;;;;2.35;1.17;;;19.40;57.40;;;;;;5043213;28;20040;-55
2022/07/01 07:30:45;;;;;;;2.53;1.00;;;19.50;57.40;;;;;;5042136;28;20057;-55
2022/07/01 07:33:12;;;;;;;1.98;0.80;;;19.50;57.40;;;;;;5043565;28;20048;-58
2022/07/01 07:35:41;;;;;;;4.85;1.33;;;19.60;57.40;;;;;;5043909;28;20054;-55
2022/07/01 07:38:10;;;;;;;2.75;1.00;;;19.60;57.20;;;;;;5044279;28;20603;-55
2022/07/01 07:40:37;;;;;;;3.00;0.93;;;19.60;56.90;;;;;;5043886;28;20059;-57
2022/07/01 07:43:07;;;;;;;5.07;1.35;;;19.60;56.80;;;;;;5044396;28;20053;-55
2022/07/01 07:45:34;;;;;;;3.25;0.80;;;19.70;56.90;;;;;;5042653;28;20049;-55
2022/07/01 07:48:02;;;;;;;1.48;0.70;;;19.70;56.90;;;;;;5043498;28;20131;-58
2022/07/01 07:50:31;;;;;;;3.75;1.10;;;19.70;57.10;;;;;;5041319;28;20056;-55
2022/07/01 07:52:59;;;;;;;1.38;0.90;;;19.80;57.20;;;;;;5043469;28;20497;-53
2022/07/01 07:55:28;;;;;;;2.25;1.30;;;19.90;56.90;;;;;;5044330;28;20048;-54
2022/07/01 07:57:55;;;;;;;4.63;1.23;;;19.90;56.70;;;;;;5043202;28;20067;-55
2022/07/01 08:00:23;;;;;;;1.88;1.10;;;19.90;56.30;;;;;;5043724;28;20052;-54
2022/07/01 08:02:50;;;;;;;1.52;0.73;;;19.90;56.00;;;;;;5042242;28;20045;-55
2022/07/01 08:05:18;;;;;;;3.13;0.95;;;19.90;56.00;;;;;;5044653;28;20053;-58
2022/07/01 08:07:45;;;;;;;2.15;1.00;;;20.00;56.10;;;;;;5044796;28;20049;-58
2022/07/01 08:10:14;;;;;;;1.85;0.90;;;20.00;56.10;;;;;;5042520;28;20053;-56
2022/07/01 08:12:42;;;;;;;2.55;0.90;;;20.00;56.00;;;;;;5042840;28;20053;-53
2022/07/01 08:15:10;;;;;;;3.00;1.15;;;20.00;55.90;;;;;;5043618;28;20084;-57
2022/07/01 08:17:38;;;;;;;2.38;0.93;;;20.00;56.00;;;;;;5042201;28;20053;-57
2022/07/01 08:20:07;;;;;;;1.45;0.85;;;20.10;56.20;;;;;;5045039;28;20405;-57
2022/07/01 08:22:34;;;;;;;2.92;1.00;;;20.10;55.90;;;;;;5041054;28;20061;-54
2022/07/01 08:25:02;;;;;;;5.53;1.50;;;20.20;55.90;;;;;;5043456;28;20057;-55
2022/07/01 08:27:31;;;;;;;2.38;1.00;;;20.20;55.30;;;;;;5042792;28;20424;-58
2022/07/01 08:29:58;;;;;;;2.28;1.10;;;20.30;55.90;;;;;;5044127;28;20064;-58
2022/07/01 08:32:28;;;;;;;1.85;0.80;;;20.30;55.50;;;;;;5043437;28;21002;-58
2022/07/01 08:34:55;;;;;;;5.13;1.65;;;20.40;56.30;;;;;;5044973;28;20056;-57
2022/07/01 08:37:23;;;;;;;2.42;1.10;;;20.40;55.20;;;;;;5044437;28;20488;-57
2022/07/01 08:39:50;;;;;;;5.93;1.20;;;20.40;54.70;;;;;;5043336;28;20052;-60
2022/07/01 08:42:18;;;;;;;4.70;1.30;;;20.40;53.60;;;;;;5042089;28;20053;-60
2022/07/01 08:44:46;;;;;;;1.40;0.95;;;20.40;53.80;;;;;;5042302;28;20053;-57
2022/07/01 08:47:14;;;;;;;5.07;1.20;;;20.40;54.50;;;;;;5042310;28;20064;-60
2022/07/01 08:49:42;;;;;;;2.55;1.25;;;20.40;54.70;;;;;;5040335;28;20071;-58
2022/07/01 08:52:10;;;;;;;2.60;0.90;;;20.40;54.70;;;;;;5042423;28;20063;-59
2022/07/01 08:54:38;;;;;;;1.77;0.90;;;20.40;54.20;;;;;;5042046;28;20052;-59
2022/07/01 08:57:07;;;;;;;4.68;1.70;;;20.40;53.20;;;;;;5042581;28;20053;-58
2022/07/01 08:59:35;;;;;;;2.80;1.20;;;20.30;53.50;;;;;;5042208;28;20055;-60
2022/07/01 09:02:05;;;;;;;2.88;1.45;;;20.20;53.30;;;;;;5040795;28;20061;-58
2022/07/01 09:04:33;;;;;;;3.60;1.35;;;20.20;53.70;;;;;;5040817;28;20052;-57
2022/07/01 09:07:05;;;;;;;3.53;1.15;;;20.00;53.60;;;;;;5043055;28;20053;-57
2022/07/01 09:09:36;;;;;;;3.92;1.20;;;20.00;54.10;;;;;;5042936;28;20056;-58
2022/07/01 09:12:04;;;;;;;4.05;1.27;;;19.90;54.60;;;;;;5045095;28;20053;-51
2022/07/01 09:14:34;;;;;;;4.97;1.50;;;19.90;54.60;;;;;;5045222;28;20056;-59
2022/07/01 09:17:06;;;;;;;3.13;1.13;;;19.80;54.70;;;;;;5044307;28;20349;-54
2022/07/01 09:19:36;;;;;;;5.60;1.30;;;19.80;55.20;;;;;;5045595;28;20489;-60
2022/07/01 09:22:06;;;;;;;1.90;0.90;;;19.80;55.00;;;;;;5044923;28;20064;-57
2022/07/01 09:24:35;;;;;;;4.75;1.42;;;19.80;54.90;;;;;;5045021;28;20056;-59
2022/07/01 09:27:09;;;;;;;2.20;1.10;;;19.80;55.90;;;;;;5045951;28;20067;-53
2022/07/01 09:29:37;;;;;;;3.25;1.00;;;19.80;54.10;;;;;;5045801;28;20055;-60
2022/07/01 09:32:09;;;;;;;1.08;0.80;;;19.80;54.60;;;;;;5043062;28;20531;-57
2022/07/01 09:34:42;;;;;;;4.35;1.00;;;19.90;54.70;;;;;;5046296;28;20052;-59
2022/07/01 09:37:13;;;;;;;3.08;1.10;;;20.00;54.80;;;;;;5045697;28;20064;-60
2022/07/01 09:39:44;;;;;;;3.88;0.90;;;20.00;54.80;;;;;;5045144;28;20057;-60
2022/07/01 09:42:12;;;;;;;4.20;0.90;;;20.10;55.50;;;;;;5045590;28;20049;-58
2022/07/01 09:44:53;;;;;;;8.00;1.08;;;20.20;55.10;;;;;;5044294;28;20563;-58
2022/07/01 09:47:24;;;;;;;1.42;0.68;;;20.30;54.10;;;;;;5042060;28;20068;-58
2022/07/01 09:49:52;;;;;;;1.02;0.52;;;20.40;53.60;;;;;;5043089;28;20060;-59
2022/07/01 09:52:20;;;;;;;1.02;0.60;;;20.50;53.50;;;;;;5042853;28;20057;-55
2022/07/01 09:54:48;;;;;;;5.93;0.70;;;20.60;52.40;;;;;;5042951;28;20049;-58
2022/07/01 09:57:16;;;;;;;4.45;0.70;;;20.70;52.80;;;;;;5042664;28;20057;-57
2022/07/01 09:59:43;;;;;;;1.58;0.80;;;20.70;52.30;;;;;;5042277;28;20052;-60
2022/07/01 10:02:12;;;;;;;4.07;0.52;;;20.80;52.50;;;;;;5039720;28;20057;-60
2022/07/01 10:04:47;;;;;;;2.72;1.00;;;20.90;52.40;;;;;;5043531;28;20390;-56
2022/07/01 10:07:30;;;;;;;1.10;0.70;;;20.90;52.00;;;;;;5043847;28;20049;-59
2022/07/01 10:10:09;;;;;;;3.30;0.70;;;21.00;51.30;;;;;;5042110;28;20053;-58
2022/07/01 10:12:41;;;;;;;4.28;0.95;;;21.00;50.90;;;;;;5041170;28;20390;-48
2022/07/01 10:15:12;;;;;;;1.00;0.52;;;21.10;51.10;;;;;;5043848;28;20519;-58
2022/07/01 10:17:45;;;;;;;1.42;0.60;;;21.10;50.70;;;;;;5042041;28;20497;-60
2022/07/01 10:20:16;;;;;;;4.40;0.65;;;21.10;50.10;;;;;;5042380;28;20424;-54
2022/07/01 10:22:45;;;;;;;2.97;0.70;;;21.10;50.70;;;;;;5041290;28;20041;-56
2022/07/01 10:25:39;;;;;;;0.98;0.40;;;21.20;51.20;;;;;;5041723;28;20059;-54
2022/07/01 10:28:17;;;;;;;5.60;0.77;;;21.20;51.10;;;;;;5041089;28;20048;-56
2022/07/01 10:31:01;;;;;;;1.58;0.50;;;21.30;50.60;;;;;;5041001;28;20063;-56
2022/07/01 10:33:47;;;;;;;1.38;0.60;;;21.30;49.90;;;;;;5042586;28;20060;-57
2022/07/01 10:36:18;;;;;;;3.90;0.70;;;21.30;49.50;;;;;;5040811;28;20045;-59
2022/07/01 10:39:27;;;;;;;1.25;0.55;;;21.30;49.20;;;;;;5039581;28;20064;-53
2022/07/01 10:42:00;;;;;;;3.08;0.57;;;21.30;49.00;;;;;;5039403;28;20354;-59
2022/07/01 10:44:29;;;;;;;2.30;0.80;;;21.30;49.50;;;;;;5040250;28;20062;-54
2022/07/01 10:47:02;;;;;;;2.58;0.68;;;21.30;49.70;;;;;;5041785;28;20420;-58
2022/07/01 10:49:55;;;;;;;1.93;0.40;;;21.30;48.60;;;;;;5041523;28;20060;-58
2022/07/01 10:52:25;;;;;;;1.52;0.57;;;21.30;48.20;;;;;;5040549;28;20061;-59
2022/07/01 10:54:55;;;;;;;0.73;0.40;;;21.30;48.00;;;;;;5038578;28;20053;-55
2022/07/01 10:57:29;;;;;;;3.15;0.57;;;21.30;48.60;;;;;;5038660;28;20052;-59
2022/07/01 11:00:18;;;;;;;1.48;0.50;;;21.30;48.50;;;;;;5040183;28;20057;-58
2022/07/01 11:02:45;;;;;;;1.52;0.68;;;21.40;49.00;;;;;;5039311;28;20056;-59
2022/07/01 11:05:15;;;;;;;2.28;0.90;;;21.50;48.50;;;;;;5040886;28;20057;-56
2022/07/01 11:07:46;;;;;;;2.78;0.50;;;21.50;47.80;;;;;;5037923;28;20049;-59
2022/07/01 11:10:16;;;;;;;3.28;0.77;;;21.60;48.50;;;;;;5040170;28;20424;-52
2022/07/01 11:12:48;;;;;;;1.38;0.55;;;21.60;48.10;;;;;;5036902;28;20505;-58
2022/07/01 11:15:17;;;;;;;3.03;0.60;;;21.60;46.90;;;;;;5037978;28;20057;-53
2022/07/01 11:17:45;;;;;;;1.17;0.50;;;21.60;46.00;;;;;;5040948;28;20052;-56
2022/07/01 11:20:13;;;;;;;2.03;0.55;;;21.60;47.20;;;;;;5041255;28;20061;-58
2022/07/01 11:22:41;;;;;;;2.20;0.30;;;21.70;47.30;;;;;;5042025;28;20048;-53
2022/07/01 11:25:13;;;;;;;1.20;0.55;;;21.70;45.70;;;;;;5036599;28;20503;-58
2022/07/01 11:27:41;;;;;;;1.55;0.70;;;21.70;46.20;;;;;;5039059;28;20052;-59
2022/07/01 11:30:12;;;;;;;3.65;0.85;;;21.80;45.50;;;;;;5038653;28;20115;-52
2022/07/01 11:32:41;;;;;;;6.38;0.80;;;21.80;45.50;;;;;;5037277;28;20389;-55
2022/07/01 11:40:53;;;;;;;1.52;0.60;;;21.90;46.40;;;;;;5047627;28;20064;-57
2022/07/01 11:43:22;;;;;;;1.13;0.40;;;21.90;46.40;;;;;;5039871;28;20049;-59
2022/07/01 11:45:50;;;;;;;2.22;0.52;;;22.00;47.30;;;;;;5040546;28;20521;-53
2022/07/01 11:48:30;;;;;;;2.03;0.52;;;22.00;46.90;;;;;;5043069;28;20428;-55
2022/07/01 11:50:58;;;;;;;1.45;0.63;;;22.10;46.60;;;;;;5044916;28;20412;-51
2022/07/01 11:53:26;;;;;;;1.58;0.47;;;22.10;45.20;;;;;;5045737;28;20428;-57
2022/07/01 11:55:55;;;;;;;2.35;0.63;;;22.10;45.30;;;;;;5045066;28;20063;-58
2022/07/01 11:58:22;;;;;;;1.88;0.50;;;22.10;46.00;;;;;;5043839;28;20045;-53
2022/07/01 12:00:50;;;;;;;2.45;0.65;;;22.00;46.10;;;;;;5044312;28;20052;-59
2022/07/01 12:03:32;;;;;;;3.13;0.73;;;22.00;46.20;;;;;;5045169;28;20053;-55
2022/07/01 12:06:00;;;;;;;0.82;0.50;;;22.00;45.30;;;;;;5041773;28;20057;-56
2022/07/01 12:08:28;;;;;;;2.80;0.50;;;22.00;46.10;;;;;;5045731;28;20052;-58
2022/07/01 12:10:59;;;;;;;1.80;0.68;;;22.00;46.70;;;;;;5042819;28;20056;-59
2022/07/01 12:13:27;;;;;;;1.52;0.70;;;22.10;45.30;;;;;;5044824;28;20057;-58
2022/07/01 12:15:55;;;;;;;2.33;0.70;;;22.10;45.00;;;;;;5044440;28;20061;-55
2022/07/01 12:18:22;;;;;;;2.00;0.68;;;22.10;43.80;;;;;;5044127;28;20056;-59
2022/07/01 12:20:53;;;;;;;1.30;0.60;;;22.20;44.60;;;;;;5045228;28;20417;-59
2022/07/01 12:23:21;;;;;;;1.70;0.40;;;22.10;45.10;;;;;;5044313;28;20060;-59
2022/07/01 12:25:50;;;;;;;2.65;0.70;;;22.20;45.20;;;;;;5044500;28;20057;-59
2022/07/01 12:28:30;;;;;;;0.55;0.47;;;22.20;45.40;;;;;;5043931;28;20057;-54
2022/07/01 12:31:07;;;;;;;1.20;0.40;;;22.20;44.70;;;;;;5043844;28;20053;-53
2022/07/01 12:33:39;;;;;;;1.13;0.50;;;22.20;45.90;;;;;;5044078;28;20056;-52
2022/07/01 12:36:08;;;;;;;2.40;1.00;;;22.20;45.50;;;;;;5044583;28;20056;-53
2022/07/01 12:38:36;;;;;;;2.67;0.80;;;22.20;45.50;;;;;;5044599;28;20049;-56
2022/07/01 12:41:03;;;;;;;2.42;0.52;;;22.10;45.00;;;;;;5043763;28;20525;-59
2022/07/01 12:43:37;;;;;;;3.25;0.57;;;22.00;45.10;;;;;;5043166;28;20060;-57
2022/07/01 12:46:05;;;;;;;2.88;0.55;;;21.90;45.40;;;;;;5043461;28;20064;-59
2022/07/01 12:48:50;;;;;;;4.38;1.05;;;21.80;45.50;;;;;;5044594;28;20057;-49
2022/07/01 12:51:17;;;;;;;2.25;0.60;;;21.80;45.20;;;;;;5043415;28;20045;-57
2022/07/01 12:53:45;;;;;;;2.83;0.70;;;21.80;45.30;;;;;;5043256;28;20061;-53
2022/07/01 12:56:23;;;;;;;1.42;0.50;;;21.80;46.40;;;;;;5043924;28;20064;-59
2022/07/01 12:58:53;;;;;;;1.80;0.60;;;21.80;44.60;;;;;;5042210;28;20068;-56
2022/07/01 13:01:20;;;;;;;1.45;0.70;;;21.80;44.90;;;;;;5042515;28;20045;-54
2022/07/01 13:03:49;;;;;;;1.65;0.60;;;21.80;45.00;;;;;;5043305;28;21502;-54
2022/07/01 13:06:16;;;;;;;1.15;0.40;;;21.80;44.80;;;;;;5044360;28;20064;-58